createdAt,value
2023-02-27T00:02:23.842Z,-0.58
2023-02-27T00:04:56.002Z,-0.71
2023-02-27T00:07:22.671Z,-0.71
2023-02-27T00:09:49.379Z,-0.91
2023-02-27T00:12:17.031Z,-0.83
2023-02-27T00:14:46.915Z,-0.65
2023-02-27T00:17:13.373Z,-0.56
2023-02-27T00:19:40.263Z,-0.69
2023-02-27T00:22:07.823Z,-0.82
2023-02-27T00:24:34.771Z,-0.66
2023-02-27T00:27:07.998Z,-0.96
2023-02-27T00:29:34.627Z,-1.05
2023-02-27T00:32:02.749Z,-1.25
2023-02-27T00:34:31.891Z,-1.19
2023-02-27T00:37:01.665Z,-1.05
2023-02-27T00:39:29.651Z,-0.87
2023-02-27T00:41:57.359Z,-0.97
2023-02-27T00:44:24.097Z,-0.85
2023-02-27T00:46:53.079Z,-0.97
2023-02-27T00:49:20.993Z,-0.75
2023-02-27T00:51:49.957Z,-0.83
2023-02-27T00:54:19.035Z,-0.85
2023-02-27T00:56:48.500Z,-0.86
2023-02-27T00:59:16.667Z,-0.78
2023-02-27T01:01:44.608Z,-0.79
2023-02-27T01:04:11.671Z,-0.70
2023-02-27T01:06:38.360Z,-0.60
2023-02-27T01:09:05.712Z,-0.84
2023-02-27T01:11:35.426Z,-0.73
2023-02-27T01:14:01.944Z,-0.65
2023-02-27T01:16:28.441Z,-0.72
2023-02-27T01:18:55.266Z,-0.85
2023-02-27T01:21:22.962Z,-1.25
2023-02-27T01:23:49.478Z,-1.13
2023-02-27T01:26:18.380Z,-1.21
2023-02-27T01:28:45.203Z,-1.08
2023-02-27T01:31:11.964Z,-1.02
2023-02-27T01:33:41.770Z,-0.99
2023-02-27T01:36:08.666Z,-1.02
2023-02-27T01:38:38.338Z,-0.98
2023-02-27T01:41:10.391Z,-1.01
2023-02-27T01:43:37.633Z,-1.00
2023-02-27T01:46:04.364Z,-1.06
2023-02-27T01:48:33.823Z,-1.03
2023-02-27T01:51:03.394Z,-1.21
2023-02-27T01:53:30.201Z,-1.24
2023-02-27T01:55:58.400Z,-1.27
2023-02-27T01:58:27.675Z,-1.26
2023-02-27T02:00:54.408Z,-1.20
2023-02-27T02:03:20.973Z,-1.09
2023-02-27T02:05:47.487Z,-0.91
2023-02-27T02:08:16.519Z,-0.85
2023-02-27T02:10:42.898Z,-1.07
2023-02-27T02:13:11.558Z,-1.18
2023-02-27T02:15:38.349Z,-1.23
2023-02-27T02:18:05.953Z,-1.00
2023-02-27T02:20:32.427Z,-0.91
2023-02-27T02:22:58.836Z,-0.94
2023-02-27T02:25:25.452Z,-1.23
2023-02-27T02:27:51.841Z,-1.16
2023-02-27T02:30:18.369Z,-1.18
2023-02-27T02:32:45.077Z,-1.14
2023-02-27T02:35:11.549Z,-1.34
2023-02-27T02:37:38.595Z,-1.30
2023-02-27T02:40:05.364Z,-1.28
2023-02-27T02:42:32.658Z,-1.19
2023-02-27T02:44:59.854Z,-1.22
2023-02-27T02:47:29.761Z,-1.21
2023-02-27T02:49:58.882Z,-1.11
2023-02-27T02:52:25.806Z,-1.06
2023-02-27T02:54:52.317Z,-0.92
2023-02-27T02:57:19.958Z,-0.87
2023-02-27T02:59:48.822Z,-0.86
2023-02-27T03:02:15.538Z,-0.76
2023-02-27T03:04:42.559Z,-0.93
2023-02-27T03:07:12.961Z,-0.79
2023-02-27T03:09:39.531Z,-0.65
2023-02-27T03:12:06.271Z,-0.66
2023-02-27T03:14:33.277Z,-0.87
2023-02-27T03:17:00.192Z,-0.83
2023-02-27T03:19:27.579Z,-1.02
2023-02-27T03:21:57.150Z,-1.01
2023-02-27T03:24:25.107Z,-1.14
2023-02-27T03:26:54.003Z,-1.13
2023-02-27T03:29:21.700Z,-1.10
2023-02-27T03:31:48.306Z,-0.98
2023-02-27T03:36:58.162Z,-0.97
2023-02-27T03:39:24.687Z,-1.04
2023-02-27T03:41:53.141Z,-1.08
2023-02-27T03:44:19.652Z,-0.96
2023-02-27T03:46:47.016Z,-1.04
2023-02-27T03:49:13.832Z,-1.01
2023-02-27T03:51:43.618Z,-1.00
2023-02-27T03:54:14.098Z,-0.97
2023-02-27T03:56:40.591Z,-1.08
2023-02-27T03:59:07.262Z,-1.02
2023-02-27T04:01:33.771Z,-1.10
2023-02-27T04:04:00.570Z,-0.92
2023-02-27T04:06:29.452Z,-1.09
2023-02-27T04:09:00.100Z,-1.14
2023-02-27T04:11:38.982Z,-0.97
2023-02-27T04:14:12.902Z,-1.10
2023-02-27T04:16:40.204Z,-1.21
2023-02-27T04:19:06.971Z,-1.24
2023-02-27T04:21:33.653Z,-1.02
2023-02-27T04:24:00.433Z,-1.09
2023-02-27T04:26:28.772Z,-1.04
2023-02-27T04:28:55.303Z,-1.04
2023-02-27T04:31:22.494Z,-0.84
2023-02-27T04:33:50.909Z,-1.10
2023-02-27T04:36:17.347Z,-0.96
2023-02-27T04:38:44.063Z,-0.95
2023-02-27T04:41:13.067Z,-0.98
2023-02-27T04:43:51.741Z,-0.99
2023-02-27T04:46:20.168Z,-1.11
2023-02-27T04:48:47.042Z,-1.06
2023-02-27T04:51:13.733Z,-0.96
2023-02-27T04:53:40.364Z,-1.03
2023-02-27T04:56:07.061Z,-0.92
2023-02-27T04:58:33.766Z,-0.84
2023-02-27T05:01:01.030Z,-0.89
2023-02-27T05:03:30.142Z,-1.01
2023-02-27T05:05:56.946Z,-0.91
2023-02-27T05:08:24.837Z,-0.78
2023-02-27T05:10:53.362Z,-0.79
2023-02-27T05:13:19.826Z,-0.89
2023-02-27T05:15:48.463Z,-1.00
2023-02-27T05:18:16.434Z,-0.90
2023-02-27T05:20:50.362Z,-1.03
2023-02-27T05:23:19.511Z,-0.87
2023-02-27T05:25:46.262Z,-0.94
2023-02-27T05:28:12.737Z,-1.11
2023-02-27T05:30:39.648Z,-1.07
2023-02-27T05:33:08.992Z,-1.23
2023-02-27T05:35:35.931Z,-1.28
2023-02-27T05:38:02.454Z,-1.20
2023-02-27T05:40:29.321Z,-1.03
2023-02-27T05:42:56.550Z,-0.91
2023-02-27T05:45:28.421Z,-0.82
2023-02-27T05:47:54.989Z,-0.75
2023-02-27T05:50:21.383Z,-1.01
2023-02-27T05:52:48.145Z,-0.87
2023-02-27T05:55:14.523Z,-1.00
2023-02-27T05:57:41.881Z,-1.01
2023-02-27T06:00:09.863Z,-1.05
2023-02-27T06:02:39.030Z,-0.84
2023-02-27T06:05:07.127Z,-0.87
2023-02-27T06:07:33.886Z,-0.90
2023-02-27T06:10:00.795Z,-0.81
2023-02-27T06:12:28.995Z,-0.76
2023-02-27T06:14:55.651Z,-0.96
2023-02-27T06:17:24.380Z,-0.90
2023-02-27T06:19:50.860Z,-0.76
2023-02-27T06:22:17.710Z,-0.99
2023-02-27T09:04:10.812Z,0.19
2023-02-27T09:09:25.261Z,0.08
2023-02-27T09:11:51.914Z,0.31
2023-02-27T09:17:02.677Z,0.67
2023-02-27T09:19:29.216Z,0.77
2023-02-27T09:21:55.834Z,0.76
2023-02-27T09:24:22.630Z,1.13
2023-02-27T09:26:49.709Z,1.29
2023-02-27T09:29:16.624Z,1.48
2023-02-27T09:31:43.344Z,1.69
2023-02-27T09:34:10.474Z,1.67
2023-02-27T09:36:37.132Z,1.12
2023-02-27T09:39:03.648Z,0.92
2023-02-27T09:41:31.224Z,0.44
2023-02-27T09:43:57.655Z,0.41
2023-02-27T09:46:31.016Z,0.54
2023-02-27T09:48:57.587Z,0.68
2023-02-27T09:51:25.559Z,0.95
2023-02-27T09:53:54.476Z,0.62
2023-02-27T09:56:21.054Z,0.73
2023-02-27T09:58:47.645Z,0.64
2023-02-27T10:01:14.309Z,0.76
2023-02-27T10:03:41.720Z,0.65
2023-02-27T10:06:10.929Z,0.69
2023-02-27T10:08:37.599Z,0.77
2023-02-27T10:11:15.700Z,1.02
2023-02-27T10:13:45.182Z,0.79
2023-02-27T10:16:11.978Z,0.65
2023-02-27T10:18:41.036Z,1.03
2023-02-27T10:21:07.761Z,0.85
2023-02-27T10:23:34.474Z,1.11
2023-02-27T10:26:02.084Z,1.15
2023-02-27T10:28:28.630Z,0.86
2023-02-27T10:30:56.138Z,0.70
2023-02-27T10:33:23.099Z,0.82
2023-02-27T10:35:49.547Z,0.82
2023-02-27T10:38:19.351Z,1.03
2023-02-27T10:40:45.925Z,1.08
2023-02-27T10:43:13.336Z,0.93
2023-02-27T10:45:47.301Z,1.12
2023-02-27T10:48:16.014Z,1.39
2023-02-27T10:50:42.457Z,1.15
2023-02-27T10:53:08.885Z,1.33
2023-02-27T10:55:35.360Z,1.18
2023-02-27T10:58:02.093Z,1.14
2023-02-27T11:00:28.758Z,1.09
2023-02-27T11:02:56.608Z,1.34
2023-02-27T11:05:23.131Z,1.33
2023-02-27T11:10:39.776Z,1.57
2023-02-27T11:13:06.636Z,1.31
2023-02-27T11:18:24.222Z,1.57
2023-02-27T11:22:19.854Z,1.88
2023-02-27T11:26:54.900Z,1.70
2023-02-27T11:29:24.368Z,2.10
2023-02-27T11:31:53.836Z,2.11
2023-02-27T11:34:21.755Z,2.26
2023-02-27T11:36:48.444Z,1.84
2023-02-27T11:42:10.310Z,1.54
2023-02-27T11:47:17.433Z,1.35
2023-02-27T11:49:43.877Z,1.87
2023-02-27T11:52:10.303Z,1.86
2023-02-27T11:54:37.128Z,2.14
2023-02-27T11:57:04.417Z,1.77
2023-02-27T11:59:30.839Z,1.26
2023-02-27T12:04:39.793Z,1.46
2023-02-27T12:09:51.960Z,1.76
2023-02-27T12:12:20.651Z,1.75
2023-02-27T12:14:47.158Z,1.93
2023-02-27T12:17:16.834Z,1.99
2023-02-27T12:19:43.361Z,2.60
2023-02-27T12:22:13.270Z,2.70
2023-02-27T12:24:41.303Z,2.40
2023-02-27T12:27:07.855Z,2.29
2023-02-27T12:29:37.033Z,2.42
2023-02-27T12:32:04.030Z,2.37
2023-02-27T12:37:14.921Z,2.73
2023-02-27T12:39:41.406Z,2.30
2023-02-27T12:42:10.336Z,2.36
2023-02-27T12:44:36.767Z,2.37
2023-02-27T12:47:03.533Z,2.45
2023-02-27T12:49:30.051Z,2.36
2023-02-27T12:52:14.413Z,2.07
2023-02-27T12:54:41.255Z,1.82
2023-02-27T13:00:01.316Z,1.26
2023-02-27T13:02:27.747Z,1.26
2023-02-27T13:04:57.633Z,1.37
2023-02-27T13:07:24.194Z,1.51
2023-02-27T13:09:51.604Z,1.77
2023-02-27T13:12:19.055Z,1.51
2023-02-27T13:14:46.203Z,1.69
2023-02-27T13:22:47.912Z,1.34
2023-02-27T13:25:14.474Z,1.50
2023-02-27T13:30:21.997Z,1.74
2023-02-27T13:32:48.948Z,1.61
2023-02-27T13:35:15.557Z,1.80
2023-02-27T13:37:42.140Z,1.88
2023-02-27T13:40:11.056Z,1.65
2023-02-27T13:42:40.418Z,1.52
2023-02-27T13:47:47.858Z,1.91
2023-02-27T13:50:14.733Z,1.39
2023-02-27T13:52:41.673Z,1.42
2023-02-27T13:55:12.026Z,1.54
2023-02-27T13:57:39.192Z,1.40
2023-02-27T14:00:05.872Z,1.43
2023-02-27T14:02:56.501Z,0.92
2023-02-27T14:05:25.431Z,1.03
2023-02-27T14:07:52.523Z,0.70
2023-02-27T14:10:19.236Z,0.96
2023-02-27T14:12:46.929Z,1.35
2023-02-27T14:15:14.387Z,1.05
2023-02-27T14:17:41.251Z,1.02
2023-02-27T14:20:10.346Z,0.91
2023-02-27T14:22:44.540Z,1.16
2023-02-27T14:25:15.181Z,1.08
2023-02-27T14:27:41.915Z,1.07
2023-02-27T14:30:08.527Z,0.94
2023-02-27T14:32:35.399Z,0.83
2023-02-27T14:35:02.341Z,0.78
2023-02-27T14:37:30.226Z,0.83
2023-02-27T14:39:56.749Z,0.52
2023-02-27T14:42:23.513Z,0.25
2023-02-27T14:44:50.724Z,0.48
2023-02-27T14:47:17.941Z,0.87
2023-02-27T14:55:28.920Z,0.35
2023-02-27T14:58:45.663Z,0.73
2023-02-27T15:00:42.652Z,0.64
2023-02-27T15:03:10.860Z,0.64
2023-02-27T15:05:45.058Z,0.70
2023-02-27T15:08:12.017Z,0.77
2023-02-27T15:10:40.793Z,0.26
2023-02-27T15:13:07.252Z,0.54
2023-02-27T15:15:35.943Z,0.29
2023-02-27T15:18:02.792Z,0.15
2023-02-27T15:20:30.697Z,0.17
2023-02-27T15:22:57.403Z,0.16
2023-02-27T15:25:24.028Z,0.26
2023-02-27T15:27:51.014Z,0.26
2023-02-27T15:30:17.420Z,0.08
2023-02-27T15:32:51.544Z,0.17
2023-02-27T15:35:19.682Z,-0.13
2023-02-27T15:37:46.067Z,-0.07
2023-02-27T15:40:12.467Z,-0.11
2023-02-27T15:42:41.374Z,-0.16
2023-02-27T15:45:09.098Z,-0.30
2023-02-27T15:47:37.735Z,-0.32
2023-02-27T15:50:04.227Z,-0.05
2023-02-27T15:52:30.750Z,0.17
2023-02-27T15:54:59.708Z,-0.21
2023-02-27T15:57:26.307Z,-0.01
2023-02-27T15:59:52.933Z,-0.30
2023-02-27T16:02:19.559Z,-0.02
2023-02-27T16:04:46.476Z,-0.12
2023-02-27T16:07:15.310Z,-0.08
2023-02-27T16:09:41.950Z,-0.33
2023-02-27T16:12:08.772Z,-0.22
2023-02-27T16:14:37.627Z,-0.39
2023-02-27T16:17:09.480Z,-0.38
2023-02-27T16:19:38.135Z,-0.16
2023-02-27T16:22:04.950Z,-0.26
2023-02-27T16:24:38.991Z,-0.03
2023-02-27T16:27:05.736Z,-0.18
2023-02-27T16:29:32.460Z,-0.22
2023-02-27T16:31:59.217Z,-0.20
2023-02-27T16:34:35.581Z,-0.31
2023-02-27T16:37:12.561Z,-0.13
2023-02-27T16:39:41.310Z,0.10
2023-02-27T16:42:08.028Z,-0.04
2023-02-27T16:44:36.059Z,0.06
2023-02-27T16:47:04.638Z,-0.11
2023-02-27T16:49:43.936Z,-0.21
2023-02-27T16:52:16.016Z,-0.08
2023-02-27T16:54:42.628Z,-0.19
2023-02-27T16:57:11.800Z,-0.10
2023-02-27T16:59:42.564Z,-0.16
2023-02-27T17:02:09.651Z,-0.22
2023-02-27T17:04:36.376Z,-0.34
2023-02-27T17:07:04.150Z,-0.38
2023-02-27T17:09:32.447Z,-0.30
2023-02-27T17:11:58.933Z,0.03
2023-02-27T17:14:27.067Z,-0.13
2023-02-27T17:16:55.743Z,-0.29
2023-02-27T17:19:22.151Z,-0.52
2023-02-27T17:21:48.617Z,-0.56
2023-02-27T17:24:16.122Z,-0.45
2023-02-27T17:26:47.245Z,-0.29
2023-02-27T17:29:14.162Z,-0.32
2023-02-27T17:31:43.033Z,-0.05
2023-02-27T17:34:09.589Z,0.13
2023-02-27T17:36:36.193Z,-0.04
2023-02-27T17:39:02.688Z,0.02
2023-02-27T17:41:31.272Z,-0.17
2023-02-27T17:44:00.465Z,-0.03
2023-02-27T17:46:27.676Z,0.17
2023-02-27T17:48:56.294Z,-0.17
2023-02-27T17:51:26.980Z,-0.14
2023-02-27T17:53:53.497Z,-0.10
2023-02-27T17:56:27.413Z,-0.22
2023-02-27T17:58:54.296Z,-0.33
2023-02-27T18:01:20.813Z,-0.35
2023-02-27T18:03:47.665Z,-0.33
2023-02-27T18:06:15.951Z,-0.72
2023-02-27T18:08:45.531Z,-0.60
2023-02-27T18:11:12.373Z,-0.57
2023-02-27T18:13:39.125Z,-0.50
2023-02-27T18:16:13.235Z,-0.82
2023-02-27T18:18:41.366Z,-0.59
2023-02-27T18:21:07.791Z,-0.61
2023-02-27T18:23:34.263Z,-0.42
2023-02-27T18:26:00.882Z,-0.15
2023-02-27T18:28:27.872Z,0.03
2023-02-27T18:30:57.438Z,-0.17
2023-02-27T18:33:23.973Z,-0.31
2023-02-27T18:35:53.077Z,-0.08
2023-02-27T18:38:21.515Z,0.10
2023-02-27T18:40:48.105Z,0.15
2023-02-27T18:43:19.779Z,0.23
2023-02-27T18:45:46.571Z,0.19
2023-02-27T18:48:13.178Z,0.16
2023-02-27T18:50:39.688Z,0.31
2023-02-27T18:53:06.732Z,0.51
2023-02-27T18:55:33.154Z,0.09
2023-02-27T18:58:00.914Z,0.24
2023-02-27T19:00:27.661Z,0.23
2023-02-27T19:02:56.653Z,-0.24
2023-02-27T19:05:23.132Z,-0.44
2023-02-27T19:07:49.613Z,-0.50
2023-02-27T19:10:16.842Z,-0.69
2023-02-27T19:12:43.507Z,-0.57
2023-02-27T19:15:10.132Z,-0.65
2023-02-27T19:17:36.825Z,-0.61
2023-02-27T19:20:03.202Z,-0.65
2023-02-27T19:22:29.629Z,-0.63
2023-02-27T19:24:58.127Z,-0.50
2023-02-27T19:27:24.715Z,-0.44
2023-02-27T19:29:51.091Z,-0.26
2023-02-27T19:32:17.619Z,-0.14
2023-02-27T19:34:44.146Z,-0.26
2023-02-27T19:37:13.198Z,-0.33
2023-02-27T19:39:39.794Z,-0.42
2023-02-27T19:42:06.178Z,-0.41
2023-02-27T19:44:32.538Z,-0.44
2023-02-27T19:46:59.236Z,-0.59
2023-02-27T19:49:26.225Z,-0.71
2023-02-27T19:51:52.626Z,-0.68
2023-02-27T19:54:19.106Z,-0.72
2023-02-27T19:56:45.583Z,-0.50
2023-02-27T19:59:11.976Z,-0.58
2023-02-27T20:01:38.477Z,-0.39
2023-02-27T20:04:05.953Z,-0.41
2023-02-27T20:06:36.866Z,-0.41
2023-02-27T20:09:03.252Z,-0.35
2023-02-27T20:11:29.708Z,-0.64
2023-02-27T20:16:33.781Z,-0.25
2023-02-27T20:19:00.580Z,-0.48
2023-02-27T20:21:28.717Z,-0.76
2023-02-27T22:09:06.876Z,-0.99
2023-02-27T22:14:25.227Z,-0.84
2023-02-27T22:16:53.162Z,-0.84
2023-02-27T22:19:25.242Z,-0.74
2023-02-27T22:53:14.181Z,-0.99
2023-02-27T22:55:47.201Z,-0.76
2023-02-27T23:01:03.262Z,-0.39
2023-02-27T23:03:30.062Z,-0.30
2023-02-27T23:05:56.522Z,-0.49
2023-02-27T23:08:23.639Z,-0.35
2023-02-27T23:10:52.950Z,-0.63
2023-02-27T23:13:20.214Z,-0.87
2023-02-27T23:15:49.175Z,-0.69
2023-02-27T23:18:16.169Z,-0.57
2023-02-27T23:20:42.608Z,-0.57
2023-02-27T23:23:09.005Z,-0.64
2023-02-27T23:25:35.523Z,-0.50
2023-02-27T23:28:01.925Z,-0.73
2023-02-27T23:30:28.435Z,-0.62
2023-02-27T23:32:54.782Z,-0.99
2023-02-27T23:35:21.766Z,-0.99
2023-02-27T23:37:48.473Z,-1.32
2023-02-27T23:40:14.881Z,-1.36
2023-02-27T23:42:51.857Z,-1.16
2023-02-27T23:45:20.741Z,-1.27
2023-02-27T23:47:47.720Z,-1.15
2023-02-27T23:50:16.178Z,-1.26
2023-02-27T23:52:43.989Z,-1.06
2023-02-27T23:55:11.766Z,-0.85
2023-02-27T23:57:38.558Z,-0.86
